Tnt — WDA8395 — position and weather

sailwx.info

Track history (hours):
 
Tides and Currents Weather Stations Pressure Air Temp Water Temp Dewpoint Dewpoint Depression Visibility Wind Speed Wind Dir Waves Ship Positions

Tnt

Owner: BRINDLEY, JAMES A, BARNEGAT LIGHT, NJ. More information available from US FCC via Universal Licensing System and Coast Guard Vessel Documentation Center.

Last reported at 2017-Sep-13 04:35 UTC. Time now 2017-Sep-24 10:29 UTC.
Position N 39°46' W 074°07'.
Warning: this ship's position is 11 days out of date.

Length 17 m.

Type: Fishing. MMSI: 366853880.

Date/timePositionNaut miles runAvg speedWind from/ knotsBaromVisibWave heightAir tempDewpointWater temp
2017-Sep-13 04:35N 39°46' W 074°07'2 0.1
2017-Sep-12 08:23N 39°46' W 074°04'2 3.9
2017-Sep-12 07:48N 39°46' W 074°07'0 0.0
2017-Sep-10 12:16N 39°46' W 074°07'3 7.3
2017-Sep-10 11:49N 39°47' W 074°03'1 3.6
2017-Sep-10 11:27N 39°46' W 074°04'2 0.1
2017-Sep-09 21:08N 39°46' W 074°07'0 0.0
2017-Sep-09 20:56N 39°46' W 074°07'0 0.0
2017-Sep-09 20:26N 39°46' W 074°07'0 0.0
2017-Sep-09 19:44N 39°46' W 074°07'0 0.0
2017-Sep-09 19:14N 39°46' W 074°07'0 0.0
2017-Sep-09 18:44N 39°46' W 074°07'0 0.0
2017-Sep-09 18:20N 39°46' W 074°07'0 0.0
2017-Sep-09 17:56N 39°46' W 074°07'0 0.0
2017-Sep-09 16:50N 39°46' W 074°07'0 0.0
2017-Sep-09 11:42N 39°46' W 074°07'0 0.0
2017-Sep-08 08:50N 39°46' W 074°07'0 0.0
2017-Sep-07 09:05N 39°46' W 074°07'0 0.0
2017-Sep-07 08:53N 39°46' W 074°07'  
2017-Sep-04 17:57N 39°40' W 074°03'1 2.9
2017-Sep-04 17:30N 39°39' W 074°05'0 0.3
2017-Sep-04 17:00N 39°39' W 074°05'2 3.0
2017-Sep-04 16:29N 39°40' W 074°03'3 6.8
2017-Sep-04 15:58N 39°37' W 074°03'3 1.9
2017-Sep-04 14:35N 39°35' W 074°01'1 2.7
2017-Sep-04 14:23N 39°35' W 074°01'1 2.7
2017-Sep-04 13:59N 39°36' W 074°00'2 3.0
2017-Sep-04 13:24N 39°38' W 074°00'2 6.0
2017-Sep-04 13:00N 39°40' W 074°02'1 1.8
2017-Sep-04 12:26N 39°41' W 074°02'1 2.7
2017-Sep-04 11:59N 39°42' W 074°01'1 2.8
2017-Sep-04 11:29N 39°44' W 074°00'2 3.6
2017-Sep-04 10:57N 39°45' W 074°03'3 6.9
2017-Sep-04 10:28N 39°46' W 074°07'  
Track history (hours):
 
Tides and Currents Weather Stations Pressure Air Temp Water Temp Dewpoint Dewpoint Depression Visibility Wind Speed Wind Dir Waves Ship Positions

Tnt

Owner: BRINDLEY, JAMES A, BARNEGAT LIGHT, NJ. More information available from US FCC via Universal Licensing System and Coast Guard Vessel Documentation Center.

Last reported at 2017-Sep-13 04:35 UTC. Time now 2017-Sep-24 10:29 UTC.
Position N 39°46' W 074°07'.
Warning: this ship's position is 11 days out of date.

Length 17 m.

Type: Fishing. MMSI: 366853880.

Date/timePositionNaut miles runAvg speedWind from/ knotsBaromVisibWave heightAir tempDewpointWater temp
2017-Sep-13 04:35N 39°46' W 074°07'2 0.1
2017-Sep-12 08:23N 39°46' W 074°04'2 3.9
2017-Sep-12 07:48N 39°46' W 074°07'0 0.0
2017-Sep-10 12:16N 39°46' W 074°07'3 7.3
2017-Sep-10 11:49N 39°47' W 074°03'1 3.6
2017-Sep-10 11:27N 39°46' W 074°04'2 0.1
2017-Sep-09 21:08N 39°46' W 074°07'0 0.0
2017-Sep-09 20:56N 39°46' W 074°07'0 0.0
2017-Sep-09 20:26N 39°46' W 074°07'0 0.0
2017-Sep-09 19:44N 39°46' W 074°07'0 0.0
2017-Sep-09 19:14N 39°46' W 074°07'0 0.0
2017-Sep-09 18:44N 39°46' W 074°07'0 0.0
2017-Sep-09 18:20N 39°46' W 074°07'0 0.0
2017-Sep-09 17:56N 39°46' W 074°07'0 0.0
2017-Sep-09 16:50N 39°46' W 074°07'0 0.0
2017-Sep-09 11:42N 39°46' W 074°07'0 0.0
2017-Sep-08 08:50N 39°46' W 074°07'0 0.0
2017-Sep-07 09:05N 39°46' W 074°07'0 0.0
2017-Sep-07 08:53N 39°46' W 074°07'  
2017-Sep-04 17:57N 39°40' W 074°03'1 2.9
2017-Sep-04 17:30N 39°39' W 074°05'0 0.3
2017-Sep-04 17:00N 39°39' W 074°05'2 3.0
2017-Sep-04 16:29N 39°40' W 074°03'3 6.8
2017-Sep-04 15:58N 39°37' W 074°03'3 1.9
2017-Sep-04 14:35N 39°35' W 074°01'1 2.7
2017-Sep-04 14:23N 39°35' W 074°01'1 2.7
2017-Sep-04 13:59N 39°36' W 074°00'2 3.0
2017-Sep-04 13:24N 39°38' W 074°00'2 6.0
2017-Sep-04 13:00N 39°40' W 074°02'1 1.8
2017-Sep-04 12:26N 39°41' W 074°02'1 2.7
2017-Sep-04 11:59N 39°42' W 074°01'1 2.8
2017-Sep-04 11:29N 39°44' W 074°00'2 3.6
2017-Sep-04 10:57N 39°45' W 074°03'3 6.9
2017-Sep-04 10:28N 39°46' W 074°07'  

Dump ship's entire track history